sensor_id;sensor_type;location;lat;lon;timestamp;temperature;humidity
36818;DHT22;22761;51.542;16.450;2022-12-07T00:01:37;5.50;74.44
36818;DHT22;22761;51.542;16.450;2022-12-07T00:04:09;5.46;74.86
36818;DHT22;22761;51.542;16.450;2022-12-07T00:06:38;5.39;74.92
36818;DHT22;22761;51.542;16.450;2022-12-07T00:09:08;5.41;75.16
36818;DHT22;22761;51.542;16.450;2022-12-07T00:11:36;5.42;75.22
36818;DHT22;22761;51.542;16.450;2022-12-07T00:14:06;5.41;75.17
36818;DHT22;22761;51.542;16.450;2022-12-07T00:16:34;5.41;75.40
36818;DHT22;22761;51.542;16.450;2022-12-07T00:19:03;5.42;75.37
36818;DHT22;22761;51.542;16.450;2022-12-07T00:21:34;5.43;75.05
36818;DHT22;22761;51.542;16.450;2022-12-07T00:24:03;5.48;75.10
36818;DHT22;22761;51.542;16.450;2022-12-07T00:26:34;5.45;75.03
36818;DHT22;22761;51.542;16.450;2022-12-07T00:29:14;5.43;75.10
36818;DHT22;22761;51.542;16.450;2022-12-07T00:31:38;5.42;75.34
36818;DHT22;22761;51.542;16.450;2022-12-07T00:34:07;5.43;75.33
36818;DHT22;22761;51.542;16.450;2022-12-07T00:36:34;5.41;75.28
36818;DHT22;22761;51.542;16.450;2022-12-07T00:39:02;5.43;75.45
36818;DHT22;22761;51.542;16.450;2022-12-07T00:41:30;5.42;75.59
36818;DHT22;22761;51.542;16.450;2022-12-07T00:43:57;5.48;75.74
36818;DHT22;22761;51.542;16.450;2022-12-07T00:46:25;5.55;75.52
36818;DHT22;22761;51.542;16.450;2022-12-07T00:48:53;5.59;75.32
36818;DHT22;22761;51.542;16.450;2022-12-07T00:51:23;5.56;75.40
36818;DHT22;22761;51.542;16.450;2022-12-07T00:53:51;5.62;75.10
36818;DHT22;22761;51.542;16.450;2022-12-07T00:56:27;5.59;75.05
36818;DHT22;22761;51.542;16.450;2022-12-07T00:58:57;5.62;74.93
36818;DHT22;22761;51.542;16.450;2022-12-07T01:01:26;5.58;75.04
36818;DHT22;22761;51.542;16.450;2022-12-07T01:03:54;5.63;74.88
36818;DHT22;22761;51.542;16.450;2022-12-07T01:06:23;5.63;74.59
36818;DHT22;22761;51.542;16.450;2022-12-07T01:08:51;5.61;74.69
36818;DHT22;22761;51.542;16.450;2022-12-07T01:11:22;5.56;74.76
36818;DHT22;22761;51.542;16.450;2022-12-07T01:13:52;5.55;75.16
36818;DHT22;22761;51.542;16.450;2022-12-07T01:16:21;5.59;75.30
36818;DHT22;22761;51.542;16.450;2022-12-07T01:18:51;5.66;74.86
36818;DHT22;22761;51.542;16.450;2022-12-07T01:21:25;5.62;74.76
36818;DHT22;22761;51.542;16.450;2022-12-07T01:23:52;5.66;74.53
36818;DHT22;22761;51.542;16.450;2022-12-07T01:26:22;5.62;74.78
36818;DHT22;22761;51.542;16.450;2022-12-07T01:28:50;5.56;74.64
36818;DHT22;22761;51.542;16.450;2022-12-07T01:31:21;5.59;74.90
36818;DHT22;22761;51.542;16.450;2022-12-07T01:33:52;5.61;74.80
36818;DHT22;22761;51.542;16.450;2022-12-07T01:36:32;5.61;74.54
36818;DHT22;22761;51.542;16.450;2022-12-07T01:39:04;5.53;74.88
36818;DHT22;22761;51.542;16.450;2022-12-07T01:41:35;5.53;75.04
36818;DHT22;22761;51.542;16.450;2022-12-07T01:44:24;5.58;74.83
36818;DHT22;22761;51.542;16.450;2022-12-07T01:47:01;5.59;74.69
36818;DHT22;22761;51.542;16.450;2022-12-07T01:54:37;5.61;74.78
36818;DHT22;22761;51.542;16.450;2022-12-07T01:57:05;5.58;74.72
36818;DHT22;22761;51.542;16.450;2022-12-07T01:59:34;5.50;74.93
36818;DHT22;22761;51.542;16.450;2022-12-07T02:02:04;5.55;74.98
36818;DHT22;22761;51.542;16.450;2022-12-07T02:04:31;5.53;74.91
36818;DHT22;22761;51.542;16.450;2022-12-07T02:06:58;5.58;74.95
36818;DHT22;22761;51.542;16.450;2022-12-07T02:09:26;5.61;74.60
36818;DHT22;22761;51.542;16.450;2022-12-07T02:11:54;5.61;74.55
36818;DHT22;22761;51.542;16.450;2022-12-07T02:14:21;5.58;74.80
36818;DHT22;22761;51.542;16.450;2022-12-07T02:20:03;5.62;74.27
36818;DHT22;22761;51.542;16.450;2022-12-07T02:28:35;5.48;74.77
36818;DHT22;22761;51.542;16.450;2022-12-07T02:31:11;5.46;74.63
36818;DHT22;22761;51.542;16.450;2022-12-07T02:33:53;5.41;74.84
36818;DHT22;22761;51.542;16.450;2022-12-07T02:36:32;5.37;74.91
36818;DHT22;22761;51.542;16.450;2022-12-07T02:39:32;5.34;74.98
36818;DHT22;22761;51.542;16.450;2022-12-07T02:42:07;5.32;75.02
36818;DHT22;22761;51.542;16.450;2022-12-07T02:44:30;5.24;75.35
36818;DHT22;22761;51.542;16.450;2022-12-07T02:47:05;5.24;75.55
36818;DHT22;22761;51.542;16.450;2022-12-07T02:49:32;5.22;75.49
36818;DHT22;22761;51.542;16.450;2022-12-07T02:52:00;5.24;75.73
36818;DHT22;22761;51.542;16.450;2022-12-07T02:54:27;5.22;75.58
36818;DHT22;22761;51.542;16.450;2022-12-07T02:57:35;5.24;75.43
36818;DHT22;22761;51.542;16.450;2022-12-07T03:00:13;5.18;75.51
36818;DHT22;22761;51.542;16.450;2022-12-07T03:11:21;5.28;75.08
36818;DHT22;22761;51.542;16.450;2022-12-07T03:16:28;5.22;75.72
36818;DHT22;22761;51.542;16.450;2022-12-07T03:19:13;5.27;75.50
36818;DHT22;22761;51.542;16.450;2022-12-07T03:21:55;5.27;75.37
36818;DHT22;22761;51.542;16.450;2022-12-07T03:24:23;5.25;75.50
36818;DHT22;22761;51.542;16.450;2022-12-07T03:27:16;5.28;75.41
36818;DHT22;22761;51.542;16.450;2022-12-07T03:30:00;5.25;75.67
36818;DHT22;22761;51.542;16.450;2022-12-07T03:32:44;5.24;75.66
36818;DHT22;22761;51.542;16.450;2022-12-07T03:35:26;5.27;75.54
36818;DHT22;22761;51.542;16.450;2022-12-07T03:38:02;5.25;75.49
36818;DHT22;22761;51.542;16.450;2022-12-07T03:40:49;5.27;75.79
36818;DHT22;22761;51.542;16.450;2022-12-07T03:43:18;5.35;75.68
36818;DHT22;22761;51.542;16.450;2022-12-07T03:46:07;5.41;75.41
36818;DHT22;22761;51.542;16.450;2022-12-07T03:51:22;5.48;75.14
36818;DHT22;22761;51.542;16.450;2022-12-07T03:54:05;5.46;75.26
36818;DHT22;22761;51.542;16.450;2022-12-07T03:56:29;5.48;75.25
36818;DHT22;22761;51.542;16.450;2022-12-07T03:58:56;5.52;74.97
36818;DHT22;22761;51.542;16.450;2022-12-07T04:01:24;5.48;75.05
36818;DHT22;22761;51.542;16.450;2022-12-07T04:03:51;5.46;75.14
36818;DHT22;22761;51.542;16.450;2022-12-07T04:06:18;5.49;75.12
36818;DHT22;22761;51.542;16.450;2022-12-07T04:08:45;5.49;74.97
36818;DHT22;22761;51.542;16.450;2022-12-07T04:11:12;5.50;75.02
36818;DHT22;22761;51.542;16.450;2022-12-07T04:13:40;5.49;75.12
36818;DHT22;22761;51.542;16.450;2022-12-07T04:16:25;5.52;74.97
36818;DHT22;22761;51.542;16.450;2022-12-07T04:18:52;5.53;74.83
36818;DHT22;22761;51.542;16.450;2022-12-07T04:21:20;5.53;74.45
36818;DHT22;22761;51.542;16.450;2022-12-07T04:23:46;5.46;74.77
36818;DHT22;22761;51.542;16.450;2022-12-07T04:26:15;5.46;74.56
36818;DHT22;22761;51.542;16.450;2022-12-07T04:28:42;5.43;74.71
36818;DHT22;22761;51.542;16.450;2022-12-07T04:31:09;5.35;75.13
36818;DHT22;22761;51.542;16.450;2022-12-07T04:33:36;5.31;75.29
36818;DHT22;22761;51.542;16.450;2022-12-07T04:36:05;5.31;75.57
36818;DHT22;22761;51.542;16.450;2022-12-07T04:38:33;5.29;75.58
36818;DHT22;22761;51.542;16.450;2022-12-07T04:41:06;5.24;75.95
36818;DHT22;22761;51.542;16.450;2022-12-07T04:43:34;5.22;76.31
36818;DHT22;22761;51.542;16.450;2022-12-07T04:46:01;5.22;76.49
36818;DHT22;22761;51.542;16.450;2022-12-07T04:48:28;5.22;76.71
36818;DHT22;22761;51.542;16.450;2022-12-07T04:50:55;5.20;76.99
36818;DHT22;22761;51.542;16.450;2022-12-07T04:53:23;5.25;76.92
36818;DHT22;22761;51.542;16.450;2022-12-07T04:55:50;5.29;76.71
36818;DHT22;22761;51.542;16.450;2022-12-07T04:58:17;5.24;76.97
36818;DHT22;22761;51.542;16.450;2022-12-07T05:00:44;5.24;77.17
36818;DHT22;22761;51.542;16.450;2022-12-07T05:03:11;5.28;76.75
36818;DHT22;22761;51.542;16.450;2022-12-07T05:05:41;5.29;76.38
36818;DHT22;22761;51.542;16.450;2022-12-07T05:08:08;5.28;76.44
36818;DHT22;22761;51.542;16.450;2022-12-07T05:10:35;5.32;76.24
36818;DHT22;22761;51.542;16.450;2022-12-07T05:13:02;5.38;75.70
36818;DHT22;22761;51.542;16.450;2022-12-07T05:15:29;5.38;75.75
36818;DHT22;22761;51.542;16.450;2022-12-07T05:17:56;5.41;75.78
36818;DHT22;22761;51.542;16.450;2022-12-07T05:20:23;5.48;75.64
36818;DHT22;22761;51.542;16.450;2022-12-07T05:22:50;5.55;75.43
36818;DHT22;22761;51.542;16.450;2022-12-07T05:25:18;5.62;74.82
36818;DHT22;22761;51.542;16.450;2022-12-07T05:27:44;5.62;74.76
36818;DHT22;22761;51.542;16.450;2022-12-07T05:30:13;5.62;74.48
36818;DHT22;22761;51.542;16.450;2022-12-07T05:32:40;5.58;74.38
36818;DHT22;22761;51.542;16.450;2022-12-07T05:35:08;5.55;73.81
36818;DHT22;22761;51.542;16.450;2022-12-07T05:37:35;5.53;73.49
36818;DHT22;22761;51.542;16.450;2022-12-07T05:40:04;5.53;73.35
36818;DHT22;22761;51.542;16.450;2022-12-07T05:42:31;5.49;73.51
36818;DHT22;22761;51.542;16.450;2022-12-07T05:44:58;5.59;71.67
36818;DHT22;22761;51.542;16.450;2022-12-07T05:47:25;5.49;72.27
36818;DHT22;22761;51.542;16.450;2022-12-07T05:49:53;5.39;72.70
36818;DHT22;22761;51.542;16.450;2022-12-07T05:52:20;5.35;72.64
36818;DHT22;22761;51.542;16.450;2022-12-07T05:54:48;5.41;71.98
36818;DHT22;22761;51.542;16.450;2022-12-07T05:57:16;5.37;72.00
36818;DHT22;22761;51.542;16.450;2022-12-07T05:59:43;5.34;71.90
36818;DHT22;22761;51.542;16.450;2022-12-07T06:02:13;5.35;71.59
36818;DHT22;22761;51.542;16.450;2022-12-07T06:04:45;5.32;72.10
36818;DHT22;22761;51.542;16.450;2022-12-07T06:07:15;5.29;72.32
36818;DHT22;22761;51.542;16.450;2022-12-07T06:09:42;5.31;71.91
36818;DHT22;22761;51.542;16.450;2022-12-07T06:12:11;5.29;71.13
36818;DHT22;22761;51.542;16.450;2022-12-07T06:14:57;5.22;71.22
36818;DHT22;22761;51.542;16.450;2022-12-07T06:17:25;5.21;70.58
36818;DHT22;22761;51.542;16.450;2022-12-07T06:19:52;5.17;70.65
36818;DHT22;22761;51.542;16.450;2022-12-07T06:22:19;5.11;70.10
36818;DHT22;22761;51.542;16.450;2022-12-07T06:24:46;5.03;69.24
36818;DHT22;22761;51.542;16.450;2022-12-07T06:27:13;5.11;67.50
36818;DHT22;22761;51.542;16.450;2022-12-07T06:29:41;4.99;67.10
36818;DHT22;22761;51.542;16.450;2022-12-07T06:32:08;4.83;68.10
36818;DHT22;22761;51.542;16.450;2022-12-07T06:34:36;4.77;67.14
36818;DHT22;22761;51.542;16.450;2022-12-07T06:37:03;4.64;67.96
36818;DHT22;22761;51.542;16.450;2022-12-07T06:39:30;4.58;68.01
36818;DHT22;22761;51.542;16.450;2022-12-07T06:41:58;4.54;67.52
36818;DHT22;22761;51.542;16.450;2022-12-07T06:44:25;4.56;66.74
36818;DHT22;22761;51.542;16.450;2022-12-07T06:46:53;4.51;67.17
36818;DHT22;22761;51.542;16.450;2022-12-07T06:49:20;4.48;67.68
36818;DHT22;22761;51.542;16.450;2022-12-07T06:51:47;4.49;67.55
36818;DHT22;22761;51.542;16.450;2022-12-07T06:54:15;4.54;67.39
36818;DHT22;22761;51.542;16.450;2022-12-07T06:56:43;4.47;67.79
36818;DHT22;22761;51.542;16.450;2022-12-07T06:59:10;4.52;67.97
36818;DHT22;22761;51.542;16.450;2022-12-07T07:01:37;4.55;67.79
36818;DHT22;22761;51.542;16.450;2022-12-07T07:04:04;4.56;68.18
36818;DHT22;22761;51.542;16.450;2022-12-07T07:07:12;4.55;68.27
36818;DHT22;22761;51.542;16.450;2022-12-07T07:09:51;4.55;68.40
36818;DHT22;22761;51.542;16.450;2022-12-07T07:12:21;4.54;68.87
36818;DHT22;22761;51.542;16.450;2022-12-07T07:14:49;4.59;68.53
36818;DHT22;22761;51.542;16.450;2022-12-07T07:17:16;4.62;68.94
36818;DHT22;22761;51.542;16.450;2022-12-07T07:19:43;4.69;68.66
36818;DHT22;22761;51.542;16.450;2022-12-07T07:22:09;4.68;69.07
36818;DHT22;22761;51.542;16.450;2022-12-07T07:24:36;4.64;69.64
36818;DHT22;22761;51.542;16.450;2022-12-07T07:27:03;4.65;69.81
36818;DHT22;22761;51.542;16.450;2022-12-07T07:29:30;4.68;69.79
36818;DHT22;22761;51.542;16.450;2022-12-07T07:31:57;4.68;70.01
36818;DHT22;22761;51.542;16.450;2022-12-07T07:34:24;4.65;70.31
36818;DHT22;22761;51.542;16.450;2022-12-07T07:36:51;4.69;70.34
36818;DHT22;22761;51.542;16.450;2022-12-07T07:39:19;4.73;70.44
36818;DHT22;22761;51.542;16.450;2022-12-07T07:41:46;4.73;70.67
36818;DHT22;22761;51.542;16.450;2022-12-07T07:44:14;4.76;70.72
36818;DHT22;22761;51.542;16.450;2022-12-07T07:46:41;4.79;70.98
36818;DHT22;22761;51.542;16.450;2022-12-07T07:49:09;4.86;70.91
36818;DHT22;22761;51.542;16.450;2022-12-07T07:51:37;4.84;70.94
36818;DHT22;22761;51.542;16.450;2022-12-07T07:54:04;4.86;71.26
36818;DHT22;22761;51.542;16.450;2022-12-07T07:56:31;4.90;71.09
36818;DHT22;22761;51.542;16.450;2022-12-07T07:58:59;4.92;70.99
36818;DHT22;22761;51.542;16.450;2022-12-07T08:01:26;4.96;71.51
36818;DHT22;22761;51.542;16.450;2022-12-07T08:03:53;5.06;71.33
36818;DHT22;22761;51.542;16.450;2022-12-07T08:06:20;5.08;71.40
36818;DHT22;22761;51.542;16.450;2022-12-07T08:08:47;5.12;71.15
36818;DHT22;22761;51.542;16.450;2022-12-07T08:11:14;5.20;71.40
36818;DHT22;22761;51.542;16.450;2022-12-07T08:13:41;5.29;70.80
36818;DHT22;22761;51.542;16.450;2022-12-07T08:16:10;5.35;70.67
36818;DHT22;22761;51.542;16.450;2022-12-07T08:18:39;5.31;70.89
36818;DHT22;22761;51.542;16.450;2022-12-07T08:21:12;5.38;70.79
36818;DHT22;22761;51.542;16.450;2022-12-07T08:23:39;5.41;70.93
36818;DHT22;22761;51.542;16.450;2022-12-07T08:26:13;5.45;70.67
36818;DHT22;22761;51.542;16.450;2022-12-07T08:28:41;5.46;70.58
36818;DHT22;22761;51.542;16.450;2022-12-07T08:31:13;5.52;70.17
36818;DHT22;22761;51.542;16.450;2022-12-07T08:33:41;5.49;70.46
36818;DHT22;22761;51.542;16.450;2022-12-07T08:36:11;5.50;70.77
36818;DHT22;22761;51.542;16.450;2022-12-07T08:38:41;5.53;70.69
36818;DHT22;22761;51.542;16.450;2022-12-07T08:41:08;5.61;70.18
36818;DHT22;22761;51.542;16.450;2022-12-07T08:43:36;5.66;70.25
36818;DHT22;22761;51.542;16.450;2022-12-07T08:46:11;5.74;70.26
36818;DHT22;22761;51.542;16.450;2022-12-07T08:49:02;5.79;69.75
36818;DHT22;22761;51.542;16.450;2022-12-07T08:51:26;5.87;69.61
36818;DHT22;22761;51.542;16.450;2022-12-07T08:53:54;5.91;69.47
36818;DHT22;22761;51.542;16.450;2022-12-07T08:56:22;5.97;69.68
36818;DHT22;22761;51.542;16.450;2022-12-07T08:58:50;6.04;69.00
36818;DHT22;22761;51.542;16.450;2022-12-07T09:01:18;6.04;69.21
36818;DHT22;22761;51.542;16.450;2022-12-07T09:03:45;6.05;68.52
36818;DHT22;22761;51.542;16.450;2022-12-07T09:06:12;6.08;68.26
36818;DHT22;22761;51.542;16.450;2022-12-07T09:08:43;6.01;69.17
36818;DHT22;22761;51.542;16.450;2022-12-07T09:11:11;6.02;68.88
36818;DHT22;22761;51.542;16.450;2022-12-07T09:13:38;6.01;69.43
36818;DHT22;22761;51.542;16.450;2022-12-07T09:16:07;6.02;69.78
36818;DHT22;22761;51.542;16.450;2022-12-07T09:18:34;6.08;69.88
36818;DHT22;22761;51.542;16.450;2022-12-07T09:21:01;6.11;69.64
36818;DHT22;22761;51.542;16.450;2022-12-07T09:23:28;6.14;69.69
36818;DHT22;22761;51.542;16.450;2022-12-07T09:25:58;6.07;70.21
36818;DHT22;22761;51.542;16.450;2022-12-07T09:28:24;6.11;70.28
36818;DHT22;22761;51.542;16.450;2022-12-07T09:30:51;6.07;70.25
36818;DHT22;22761;51.542;16.450;2022-12-07T09:33:18;5.98;70.76
36818;DHT22;22761;51.542;16.450;2022-12-07T09:35:51;5.94;70.98
36818;DHT22;22761;51.542;16.450;2022-12-07T09:38:19;5.84;71.66
36818;DHT22;22761;51.542;16.450;2022-12-07T09:40:47;5.82;71.95
36818;DHT22;22761;51.542;16.450;2022-12-07T09:43:23;5.83;71.94
36818;DHT22;22761;51.542;16.450;2022-12-07T09:45:53;5.80;71.88
36818;DHT22;22761;51.542;16.450;2022-12-07T09:51:00;5.67;72.66
36818;DHT22;22761;51.542;16.450;2022-12-07T09:53:30;5.74;72.68
36818;DHT22;22761;51.542;16.450;2022-12-07T09:55:57;5.76;72.48
36818;DHT22;22761;51.542;16.450;2022-12-07T09:58:26;5.82;72.29
36818;DHT22;22761;51.542;16.450;2022-12-07T10:01:05;5.86;72.34
36818;DHT22;22761;51.542;16.450;2022-12-07T10:03:29;5.93;72.11
36818;DHT22;22761;51.542;16.450;2022-12-07T10:05:57;5.87;72.16
36818;DHT22;22761;51.542;16.450;2022-12-07T10:08:25;5.93;72.32
36818;DHT22;22761;51.542;16.450;2022-12-07T10:10:55;5.93;72.49
36818;DHT22;22761;51.542;16.450;2022-12-07T10:13:39;5.98;72.13
36818;DHT22;22761;51.542;16.450;2022-12-07T10:18:54;6.00;72.11
36818;DHT22;22761;51.542;16.450;2022-12-07T10:21:25;5.96;72.30
36818;DHT22;22761;51.542;16.450;2022-12-07T10:26:51;6.02;72.15
36818;DHT22;22761;51.542;16.450;2022-12-07T10:29:34;6.08;71.91
36818;DHT22;22761;51.542;16.450;2022-12-07T10:32:08;6.17;71.91
36818;DHT22;22761;51.542;16.450;2022-12-07T10:34:36;6.21;71.98
36818;DHT22;22761;51.542;16.450;2022-12-07T10:37:17;6.31;71.74
36818;DHT22;22761;51.542;16.450;2022-12-07T10:42:26;6.39;70.85
36818;DHT22;22761;51.542;16.450;2022-12-07T10:45:16;6.36;70.84
36818;DHT22;22761;51.542;16.450;2022-12-07T10:51:09;6.40;70.53
36818;DHT22;22761;51.542;16.450;2022-12-07T10:54:12;6.26;71.22
36818;DHT22;22761;51.542;16.450;2022-12-07T10:57:16;6.28;71.35
36818;DHT22;22761;51.542;16.450;2022-12-07T11:00:19;6.19;71.90
36818;DHT22;22761;51.542;16.450;2022-12-07T11:06:01;6.28;71.65
36818;DHT22;22761;51.542;16.450;2022-12-07T11:09:03;6.28;71.74
36818;DHT22;22761;51.542;16.450;2022-12-07T11:11:42;6.35;71.51
36818;DHT22;22761;51.542;16.450;2022-12-07T11:14:31;6.39;71.71
36818;DHT22;22761;51.542;16.450;2022-12-07T11:20:29;6.56;70.04
36818;DHT22;22761;51.542;16.450;2022-12-07T11:38:47;6.81;68.56
36818;DHT22;22761;51.542;16.450;2022-12-07T11:41:23;6.80;69.43
36818;DHT22;22761;51.542;16.450;2022-12-07T11:46:56;6.88;68.93
36818;DHT22;22761;51.542;16.450;2022-12-07T11:49:57;6.92;69.23
36818;DHT22;22761;51.542;16.450;2022-12-07T11:55:46;7.02;67.76
36818;DHT22;22761;51.542;16.450;2022-12-07T12:01:18;7.19;66.10
36818;DHT22;22761;51.542;16.450;2022-12-07T12:06:34;7.28;66.49
36818;DHT22;22761;51.542;16.450;2022-12-07T12:09:14;7.39;64.92
36818;DHT22;22761;51.542;16.450;2022-12-07T12:20:46;7.61;64.92
36818;DHT22;22761;51.542;16.450;2022-12-07T12:23:24;7.77;64.80
36818;DHT22;22761;51.542;16.450;2022-12-07T12:26:01;8.02;63.17
36818;DHT22;22761;51.542;16.450;2022-12-07T12:28:38;8.05;63.85
36818;DHT22;22761;51.542;16.450;2022-12-07T12:33:51;8.26;61.74
36818;DHT22;22761;51.542;16.450;2022-12-07T12:36:42;8.26;60.83
36818;DHT22;22761;51.542;16.450;2022-12-07T12:39:12;8.19;61.89
36818;DHT22;22761;51.542;16.450;2022-12-07T12:49:42;8.15;61.46
36818;DHT22;22761;51.542;16.450;2022-12-07T12:55:15;7.97;62.49
36818;DHT22;22761;51.542;16.450;2022-12-07T12:58:31;7.94;62.77
36818;DHT22;22761;51.542;16.450;2022-12-07T13:00:38;7.87;63.16
36818;DHT22;22761;51.542;16.450;2022-12-07T13:03:28;7.95;61.86
36818;DHT22;22761;51.542;16.450;2022-12-07T13:08:56;7.73;62.75
36818;DHT22;22761;51.542;16.450;2022-12-07T13:11:33;7.68;63.40
36818;DHT22;22761;51.542;16.450;2022-12-07T13:20:06;7.46;63.96
36818;DHT22;22761;51.542;16.450;2022-12-07T13:22:41;7.42;64.14
36818;DHT22;22761;51.542;16.450;2022-12-07T13:28:18;7.32;64.12
36818;DHT22;22761;51.542;16.450;2022-12-07T13:33:35;7.20;63.16
36818;DHT22;22761;51.542;16.450;2022-12-07T13:36:03;7.09;63.53
36818;DHT22;22761;51.542;16.450;2022-12-07T13:38:33;7.02;63.23
36818;DHT22;22761;51.542;16.450;2022-12-07T13:43:53;6.92;63.71
36818;DHT22;22761;51.542;16.450;2022-12-07T13:46:26;6.90;63.65
36818;DHT22;22761;51.542;16.450;2022-12-07T13:48:53;6.90;63.75
36818;DHT22;22761;51.542;16.450;2022-12-07T13:51:26;6.98;63.15
36818;DHT22;22761;51.542;16.450;2022-12-07T13:54:01;7.00;63.55
36818;DHT22;22761;51.542;16.450;2022-12-07T13:56:35;7.09;63.27
36818;DHT22;22761;51.542;16.450;2022-12-07T13:59:13;7.18;63.00
36818;DHT22;22761;51.542;16.450;2022-12-07T14:01:37;7.12;62.98
36818;DHT22;22761;51.542;16.450;2022-12-07T14:04:37;7.09;63.29
36818;DHT22;22761;51.542;16.450;2022-12-07T14:10:03;7.22;63.16
36818;DHT22;22761;51.542;16.450;2022-12-07T14:12:32;7.15;63.31
36818;DHT22;22761;51.542;16.450;2022-12-07T14:15:03;7.11;63.38
36818;DHT22;22761;51.542;16.450;2022-12-07T14:17:30;7.04;63.81
36818;DHT22;22761;51.542;16.450;2022-12-07T14:20:00;6.98;64.00
36818;DHT22;22761;51.542;16.450;2022-12-07T14:22:39;6.90;64.14
36818;DHT22;22761;51.542;16.450;2022-12-07T14:25:25;6.83;64.42
36818;DHT22;22761;51.542;16.450;2022-12-07T14:28:00;6.81;64.47
36818;DHT22;22761;51.542;16.450;2022-12-07T14:30:31;6.81;64.53
36818;DHT22;22761;51.542;16.450;2022-12-07T14:33:04;6.84;64.46
36818;DHT22;22761;51.542;16.450;2022-12-07T14:35:32;6.69;64.67
36818;DHT22;22761;51.542;16.450;2022-12-07T14:38:00;6.67;64.81
36818;DHT22;22761;51.542;16.450;2022-12-07T14:40:29;6.63;64.68
36818;DHT22;22761;51.542;16.450;2022-12-07T14:43:15;6.63;64.30
36818;DHT22;22761;51.542;16.450;2022-12-07T14:45:43;6.55;64.25
36818;DHT22;22761;51.542;16.450;2022-12-07T14:48:16;6.46;64.88
36818;DHT22;22761;51.542;16.450;2022-12-07T14:50:52;6.40;65.10
36818;DHT22;22761;51.542;16.450;2022-12-07T14:53:26;6.39;64.20
36818;DHT22;22761;51.542;16.450;2022-12-07T14:55:53;6.36;62.80
36818;DHT22;22761;51.542;16.450;2022-12-07T14:58:20;6.36;62.86
36818;DHT22;22761;51.542;16.450;2022-12-07T15:00:48;6.35;61.59
36818;DHT22;22761;51.542;16.450;2022-12-07T15:03:17;6.29;61.44
36818;DHT22;22761;51.542;16.450;2022-12-07T15:05:44;6.18;61.98
36818;DHT22;22761;51.542;16.450;2022-12-07T15:08:13;6.14;62.22
36818;DHT22;22761;51.542;16.450;2022-12-07T15:10:40;6.12;62.05
36818;DHT22;22761;51.542;16.450;2022-12-07T15:13:08;6.07;62.54
36818;DHT22;22761;51.542;16.450;2022-12-07T15:15:55;6.04;62.65
36818;DHT22;22761;51.542;16.450;2022-12-07T15:18:23;6.02;62.86
36818;DHT22;22761;51.542;16.450;2022-12-07T15:20:50;6.04;62.49
36818;DHT22;22761;51.542;16.450;2022-12-07T15:23:18;6.01;62.66
36818;DHT22;22761;51.542;16.450;2022-12-07T15:25:49;5.97;63.26
36818;DHT22;22761;51.542;16.450;2022-12-07T15:28:17;6.02;62.81
36818;DHT22;22761;51.542;16.450;2022-12-07T15:30:44;6.02;62.91
36818;DHT22;22761;51.542;16.450;2022-12-07T15:33:13;6.00;63.16
36818;DHT22;22761;51.542;16.450;2022-12-07T15:35:43;5.94;63.55
36818;DHT22;22761;51.542;16.450;2022-12-07T15:38:11;5.91;63.63
36818;DHT22;22761;51.542;16.450;2022-12-07T15:40:38;5.89;63.99
36818;DHT22;22761;51.542;16.450;2022-12-07T15:43:09;5.93;64.25
36818;DHT22;22761;51.542;16.450;2022-12-07T15:45:38;6.00;64.04
36818;DHT22;22761;51.542;16.450;2022-12-07T15:48:06;5.98;64.08
36818;DHT22;22761;51.542;16.450;2022-12-07T15:50:33;5.98;64.16
36818;DHT22;22761;51.542;16.450;2022-12-07T15:53:00;5.96;64.21
36818;DHT22;22761;51.542;16.450;2022-12-07T15:55:28;5.98;64.20
36818;DHT22;22761;51.542;16.450;2022-12-07T15:57:55;6.00;64.60
36818;DHT22;22761;51.542;16.450;2022-12-07T16:00:22;6.02;64.43
36818;DHT22;22761;51.542;16.450;2022-12-07T16:02:50;6.00;64.53
36818;DHT22;22761;51.542;16.450;2022-12-07T16:05:17;6.00;64.66
36818;DHT22;22761;51.542;16.450;2022-12-07T16:07:44;5.96;64.91
36818;DHT22;22761;51.542;16.450;2022-12-07T16:10:13;5.94;65.49
36818;DHT22;22761;51.542;16.450;2022-12-07T16:12:40;5.90;65.42
36818;DHT22;22761;51.542;16.450;2022-12-07T16:15:09;5.87;65.75
36818;DHT22;22761;51.542;16.450;2022-12-07T16:17:37;5.83;66.03
36818;DHT22;22761;51.542;16.450;2022-12-07T16:20:06;5.79;66.11
36818;DHT22;22761;51.542;16.450;2022-12-07T16:22:33;5.79;66.39
36818;DHT22;22761;51.542;16.450;2022-12-07T16:25:01;5.76;66.58
36818;DHT22;22761;51.542;16.450;2022-12-07T16:27:28;5.72;66.76
36818;DHT22;22761;51.542;16.450;2022-12-07T16:29:55;5.66;66.84
36818;DHT22;22761;51.542;16.450;2022-12-07T16:32:22;5.62;67.18
36818;DHT22;22761;51.542;16.450;2022-12-07T16:34:50;5.62;67.34
36818;DHT22;22761;51.542;16.450;2022-12-07T16:37:18;5.58;67.36
36818;DHT22;22761;51.542;16.450;2022-12-07T16:39:45;5.55;67.52
36818;DHT22;22761;51.542;16.450;2022-12-07T16:42:13;5.50;67.66
36818;DHT22;22761;51.542;16.450;2022-12-07T16:44:41;5.48;67.64
36818;DHT22;22761;51.542;16.450;2022-12-07T16:47:09;5.43;67.85
36818;DHT22;22761;51.542;16.450;2022-12-07T16:49:36;5.42;68.08
36818;DHT22;22761;51.542;16.450;2022-12-07T16:52:04;5.42;68.29
36818;DHT22;22761;51.542;16.450;2022-12-07T16:54:31;5.41;68.29
36818;DHT22;22761;51.542;16.450;2022-12-07T16:57:00;5.39;68.49
36818;DHT22;22761;51.542;16.450;2022-12-07T16:59:27;5.37;68.54
36818;DHT22;22761;51.542;16.450;2022-12-07T17:01:56;5.39;68.73
36818;DHT22;22761;51.542;16.450;2022-12-07T17:04:23;5.39;68.83
36818;DHT22;22761;51.542;16.450;2022-12-07T17:06:50;5.41;68.79
36818;DHT22;22761;51.542;16.450;2022-12-07T17:09:18;5.43;68.74
36818;DHT22;22761;51.542;16.450;2022-12-07T17:11:46;5.45;68.87
36818;DHT22;22761;51.542;16.450;2022-12-07T17:14:13;5.45;68.95
36818;DHT22;22761;51.542;16.450;2022-12-07T17:17:02;5.42;69.16
36818;DHT22;22761;51.542;16.450;2022-12-07T17:19:31;5.41;69.23
36818;DHT22;22761;51.542;16.450;2022-12-07T17:22:01;5.41;69.59
36818;DHT22;22761;51.542;16.450;2022-12-07T17:24:28;5.41;69.64
36818;DHT22;22761;51.542;16.450;2022-12-07T17:26:55;5.37;69.59
36818;DHT22;22761;51.542;16.450;2022-12-07T17:29:23;5.37;69.81
36818;DHT22;22761;51.542;16.450;2022-12-07T17:31:51;5.37;69.94
36818;DHT22;22761;51.542;16.450;2022-12-07T17:34:19;5.32;70.19
36818;DHT22;22761;51.542;16.450;2022-12-07T17:36:47;5.32;70.17
36818;DHT22;22761;51.542;16.450;2022-12-07T17:39:17;5.27;70.36
36818;DHT22;22761;51.542;16.450;2022-12-07T17:41:45;5.20;70.46
36818;DHT22;22761;51.542;16.450;2022-12-07T17:44:32;5.22;70.99
36818;DHT22;22761;51.542;16.450;2022-12-07T17:47:00;5.20;71.04
36818;DHT22;22761;51.542;16.450;2022-12-07T17:49:30;5.12;70.98
36818;DHT22;22761;51.542;16.450;2022-12-07T17:51:57;5.12;71.20
36818;DHT22;22761;51.542;16.450;2022-12-07T17:54:44;5.08;71.25